Forside
METAR-TAF:

METAR-TAF

Lufthavne :

Poplar Bluff Municipal Airport

Poplar Bluff, Missouri, USA

Breddekreds: 36-46-14N, længdekreds: 090-19-20W, højde: 100 m

Aktuelle vejr

Denne rapport blev lavet for 45 minutter siden, kl. 22:53 UTC
Vind 7 kt fra sydvest
Temperatur 11°C
Fugtighed 94%
Tryk 1020 hPa
Sigt: 12.9 km
Overskyet i en højde af 3800 ft
let regn

METAR: KPOF 192253Z AUTO 22007KT 8SM -RA OVC038 11/10 A3011 RMK AO2 SLP201 P0003 T01060100

Tid: 18:38 (23:38 UTC)


TAF: fraværende

Vejrobservationer og prognoser fra mere end 4000 lufthavne (METAR og TAF).

De gule og røde prikker repræsenterer de meteorologiske stationer.

Flyt musen over at se navnet på stationen.

Så klik over at se vejr observationer og prognoser.

At skifte det kort: Klik på de grønne knapper med et sort kors for at zoome ind; på den grønne knap med en bindestreg for at zoome ud; eller på de grønne pile for tilstødende kort.


METAR-TAF: